sensor_id;sensor_type;location;lat;lon;timestamp;temperature;humidity
16283;DHT22;8249;48.708;9.030;2023-02-24T00:00:09;8.00;99.90
16283;DHT22;8249;48.708;9.030;2023-02-24T00:02:57;8.00;99.90
16283;DHT22;8249;48.708;9.030;2023-02-24T00:05:35;8.00;99.90
16283;DHT22;8249;48.708;9.030;2023-02-24T00:08:03;8.00;99.90
16283;DHT22;8249;48.708;9.030;2023-02-24T00:10:31;8.00;99.90
16283;DHT22;8249;48.708;9.030;2023-02-24T00:12:58;8.00;99.90
16283;DHT22;8249;48.708;9.030;2023-02-24T00:15:27;8.00;99.90
16283;DHT22;8249;48.708;9.030;2023-02-24T00:17:54;8.00;99.90
16283;DHT22;8249;48.708;9.030;2023-02-24T00:20:22;8.10;99.90
16283;DHT22;8249;48.708;9.030;2023-02-24T00:22:50;8.10;99.90
16283;DHT22;8249;48.708;9.030;2023-02-24T00:25:17;8.10;99.90
16283;DHT22;8249;48.708;9.030;2023-02-24T00:27:44;8.10;99.90
16283;DHT22;8249;48.708;9.030;2023-02-24T00:30:11;8.10;99.90
16283;DHT22;8249;48.708;9.030;2023-02-24T00:32:40;8.10;99.90
16283;DHT22;8249;48.708;9.030;2023-02-24T00:35:07;8.10;99.90
16283;DHT22;8249;48.708;9.030;2023-02-24T00:37:34;8.10;99.90
16283;DHT22;8249;48.708;9.030;2023-02-24T00:40:01;8.10;99.90
16283;DHT22;8249;48.708;9.030;2023-02-24T00:42:36;8.20;99.90
16283;DHT22;8249;48.708;9.030;2023-02-24T00:45:05;8.10;99.90
16283;DHT22;8249;48.708;9.030;2023-02-24T00:47:36;8.10;99.90
16283;DHT22;8249;48.708;9.030;2023-02-24T00:50:06;8.20;99.90
16283;DHT22;8249;48.708;9.030;2023-02-24T00:52:34;8.10;99.90
16283;DHT22;8249;48.708;9.030;2023-02-24T00:55:04;8.10;99.90
16283;DHT22;8249;48.708;9.030;2023-02-24T00:57:39;8.10;99.90
16283;DHT22;8249;48.708;9.030;2023-02-24T01:00:07;8.10;99.90
16283;DHT22;8249;48.708;9.030;2023-02-24T01:02:38;8.20;99.90
16283;DHT22;8249;48.708;9.030;2023-02-24T01:05:09;8.20;99.90
16283;DHT22;8249;48.708;9.030;2023-02-24T01:07:37;8.20;99.90
16283;DHT22;8249;48.708;9.030;2023-02-24T01:10:05;8.20;99.90
16283;DHT22;8249;48.708;9.030;2023-02-24T01:12:33;8.30;99.90
16283;DHT22;8249;48.708;9.030;2023-02-24T01:15:15;8.30;99.90
16283;DHT22;8249;48.708;9.030;2023-02-24T01:17:42;8.20;99.90
16283;DHT22;8249;48.708;9.030;2023-02-24T01:20:12;8.30;99.90
16283;DHT22;8249;48.708;9.030;2023-02-24T01:22:45;8.30;99.90
16283;DHT22;8249;48.708;9.030;2023-02-24T01:25:14;8.30;99.90
16283;DHT22;8249;48.708;9.030;2023-02-24T01:27:41;8.30;99.90
16283;DHT22;8249;48.708;9.030;2023-02-24T01:30:09;8.30;99.90
16283;DHT22;8249;48.708;9.030;2023-02-24T01:32:41;8.30;99.90
16283;DHT22;8249;48.708;9.030;2023-02-24T01:35:09;8.30;99.90
16283;DHT22;8249;48.708;9.030;2023-02-24T01:37:39;8.30;99.90
16283;DHT22;8249;48.708;9.030;2023-02-24T01:40:10;8.40;99.90
16283;DHT22;8249;48.708;9.030;2023-02-24T01:42:43;8.40;99.90
16283;DHT22;8249;48.708;9.030;2023-02-24T01:45:17;8.40;99.90
16283;DHT22;8249;48.708;9.030;2023-02-24T01:47:45;8.40;99.90
16283;DHT22;8249;48.708;9.030;2023-02-24T01:50:14;8.50;99.90
16283;DHT22;8249;48.708;9.030;2023-02-24T01:52:49;8.50;99.90
16283;DHT22;8249;48.708;9.030;2023-02-24T01:55:19;8.50;99.90
16283;DHT22;8249;48.708;9.030;2023-02-24T01:57:49;8.50;99.90
16283;DHT22;8249;48.708;9.030;2023-02-24T02:00:18;8.50;99.90
16283;DHT22;8249;48.708;9.030;2023-02-24T02:03:05;8.60;99.90
16283;DHT22;8249;48.708;9.030;2023-02-24T02:05:33;8.60;99.90
16283;DHT22;8249;48.708;9.030;2023-02-24T02:08:05;8.60;99.90
16283;DHT22;8249;48.708;9.030;2023-02-24T02:10:37;8.60;99.90
16283;DHT22;8249;48.708;9.030;2023-02-24T02:13:05;8.70;99.90
16283;DHT22;8249;48.708;9.030;2023-02-24T02:15:36;8.60;99.90
16283;DHT22;8249;48.708;9.030;2023-02-24T02:18:12;8.60;99.90
16283;DHT22;8249;48.708;9.030;2023-02-24T02:20:57;8.60;99.90
16283;DHT22;8249;48.708;9.030;2023-02-24T02:23:51;8.50;99.90
16283;DHT22;8249;48.708;9.030;2023-02-24T02:26:48;8.50;99.90
16283;DHT22;8249;48.708;9.030;2023-02-24T02:29:49;8.50;99.90
16283;DHT22;8249;48.708;9.030;2023-02-24T02:35:35;8.50;99.90
16283;DHT22;8249;48.708;9.030;2023-02-24T02:38:09;8.50;99.90
16283;DHT22;8249;48.708;9.030;2023-02-24T02:40:42;8.50;99.90
16283;DHT22;8249;48.708;9.030;2023-02-24T02:43:14;8.50;99.90
16283;DHT22;8249;48.708;9.030;2023-02-24T02:45:47;8.50;99.90
16283;DHT22;8249;48.708;9.030;2023-02-24T02:48:26;8.50;99.90
16283;DHT22;8249;48.708;9.030;2023-02-24T02:51:02;8.50;99.90
16283;DHT22;8249;48.708;9.030;2023-02-24T02:53:32;8.50;99.90
16283;DHT22;8249;48.708;9.030;2023-02-24T02:56:06;8.60;99.90
16283;DHT22;8249;48.708;9.030;2023-02-24T02:58:39;8.50;99.90
16283;DHT22;8249;48.708;9.030;2023-02-24T03:01:09;8.50;99.90
16283;DHT22;8249;48.708;9.030;2023-02-24T03:03:40;8.50;99.90
16283;DHT22;8249;48.708;9.030;2023-02-24T03:06:13;8.50;99.90
16283;DHT22;8249;48.708;9.030;2023-02-24T03:08:48;8.50;99.90
16283;DHT22;8249;48.708;9.030;2023-02-24T03:11:18;8.50;99.90
16283;DHT22;8249;48.708;9.030;2023-02-24T03:13:47;8.50;99.90
16283;DHT22;8249;48.708;9.030;2023-02-24T03:16:17;8.50;99.90
16283;DHT22;8249;48.708;9.030;2023-02-24T03:18:49;8.50;99.90
16283;DHT22;8249;48.708;9.030;2023-02-24T03:21:23;8.40;99.90
16283;DHT22;8249;48.708;9.030;2023-02-24T03:23:53;8.40;99.90
16283;DHT22;8249;48.708;9.030;2023-02-24T03:26:27;8.40;99.90
16283;DHT22;8249;48.708;9.030;2023-02-24T03:28:59;8.40;99.90
16283;DHT22;8249;48.708;9.030;2023-02-24T03:31:34;8.40;99.90
16283;DHT22;8249;48.708;9.030;2023-02-24T03:34:07;8.40;99.90
16283;DHT22;8249;48.708;9.030;2023-02-24T03:36:36;8.40;99.90
16283;DHT22;8249;48.708;9.030;2023-02-24T03:39:04;8.40;99.90
16283;DHT22;8249;48.708;9.030;2023-02-24T03:41:43;8.40;99.90
16283;DHT22;8249;48.708;9.030;2023-02-24T03:44:11;8.40;99.90
16283;DHT22;8249;48.708;9.030;2023-02-24T03:46:40;8.50;99.90
16283;DHT22;8249;48.708;9.030;2023-02-24T03:49:11;8.40;99.90
16283;DHT22;8249;48.708;9.030;2023-02-24T03:51:40;8.40;99.90
16283;DHT22;8249;48.708;9.030;2023-02-24T03:54:19;8.40;99.90
16283;DHT22;8249;48.708;9.030;2023-02-24T03:57:04;8.50;99.90
16283;DHT22;8249;48.708;9.030;2023-02-24T03:59:44;8.50;99.90
16283;DHT22;8249;48.708;9.030;2023-02-24T04:02:19;8.40;99.90
16283;DHT22;8249;48.708;9.030;2023-02-24T04:04:53;8.40;99.90
16283;DHT22;8249;48.708;9.030;2023-02-24T04:07:36;8.40;99.90
16283;DHT22;8249;48.708;9.030;2023-02-24T04:10:08;8.40;99.90
16283;DHT22;8249;48.708;9.030;2023-02-24T04:12:45;8.40;99.90
16283;DHT22;8249;48.708;9.030;2023-02-24T04:15:20;8.40;99.90
16283;DHT22;8249;48.708;9.030;2023-02-24T04:17:51;8.40;99.90
16283;DHT22;8249;48.708;9.030;2023-02-24T04:20:21;8.40;99.90
16283;DHT22;8249;48.708;9.030;2023-02-24T04:23:00;8.50;99.90
16283;DHT22;8249;48.708;9.030;2023-02-24T04:25:30;8.40;99.90
16283;DHT22;8249;48.708;9.030;2023-02-24T04:27:58;8.40;99.90
16283;DHT22;8249;48.708;9.030;2023-02-24T04:30:30;8.50;99.90
16283;DHT22;8249;48.708;9.030;2023-02-24T04:32:57;8.40;99.90
16283;DHT22;8249;48.708;9.030;2023-02-24T04:35:25;8.40;99.90
16283;DHT22;8249;48.708;9.030;2023-02-24T04:37:54;8.40;99.90
16283;DHT22;8249;48.708;9.030;2023-02-24T04:40:24;8.40;99.90
16283;DHT22;8249;48.708;9.030;2023-02-24T04:42:52;8.30;99.90
16283;DHT22;8249;48.708;9.030;2023-02-24T04:45:21;8.30;99.90
16283;DHT22;8249;48.708;9.030;2023-02-24T04:47:51;8.30;99.90
16283;DHT22;8249;48.708;9.030;2023-02-24T04:50:22;8.30;99.90
16283;DHT22;8249;48.708;9.030;2023-02-24T04:52:51;8.30;99.90
16283;DHT22;8249;48.708;9.030;2023-02-24T04:55:19;8.30;99.90
16283;DHT22;8249;48.708;9.030;2023-02-24T04:57:51;8.20;99.90
16283;DHT22;8249;48.708;9.030;2023-02-24T05:00:19;8.20;99.90
16283;DHT22;8249;48.708;9.030;2023-02-24T05:02:47;8.20;99.90
16283;DHT22;8249;48.708;9.030;2023-02-24T05:05:16;8.10;99.90
16283;DHT22;8249;48.708;9.030;2023-02-24T05:07:50;8.10;99.90
16283;DHT22;8249;48.708;9.030;2023-02-24T05:10:17;8.10;99.90
16283;DHT22;8249;48.708;9.030;2023-02-24T05:12:44;8.10;99.90
16283;DHT22;8249;48.708;9.030;2023-02-24T05:15:13;8.10;99.90
16283;DHT22;8249;48.708;9.030;2023-02-24T05:17:39;8.10;99.90
16283;DHT22;8249;48.708;9.030;2023-02-24T05:20:08;8.00;99.90
16283;DHT22;8249;48.708;9.030;2023-02-24T05:22:53;8.00;99.90
16283;DHT22;8249;48.708;9.030;2023-02-24T05:25:21;8.00;99.90
16283;DHT22;8249;48.708;9.030;2023-02-24T05:27:50;8.00;99.90
16283;DHT22;8249;48.708;9.030;2023-02-24T05:30:19;8.00;99.90
16283;DHT22;8249;48.708;9.030;2023-02-24T05:32:46;8.00;99.90
16283;DHT22;8249;48.708;9.030;2023-02-24T05:35:13;8.00;99.90
16283;DHT22;8249;48.708;9.030;2023-02-24T05:37:40;8.10;99.90
16283;DHT22;8249;48.708;9.030;2023-02-24T05:40:09;8.00;99.90
16283;DHT22;8249;48.708;9.030;2023-02-24T05:42:39;8.00;99.90
16283;DHT22;8249;48.708;9.030;2023-02-24T05:45:10;8.00;99.90
16283;DHT22;8249;48.708;9.030;2023-02-24T05:47:38;7.90;99.90
16283;DHT22;8249;48.708;9.030;2023-02-24T05:50:06;7.90;99.90
16283;DHT22;8249;48.708;9.030;2023-02-24T05:52:36;7.90;99.90
16283;DHT22;8249;48.708;9.030;2023-02-24T05:55:04;7.90;99.90
16283;DHT22;8249;48.708;9.030;2023-02-24T05:57:38;7.80;99.90
16283;DHT22;8249;48.708;9.030;2023-02-24T06:00:07;7.80;99.90
16283;DHT22;8249;48.708;9.030;2023-02-24T06:02:42;7.80;99.90
16283;DHT22;8249;48.708;9.030;2023-02-24T06:05:16;7.80;99.90
16283;DHT22;8249;48.708;9.030;2023-02-24T06:07:55;7.80;99.90
16283;DHT22;8249;48.708;9.030;2023-02-24T06:10:30;7.80;99.90
16283;DHT22;8249;48.708;9.030;2023-02-24T06:12:59;7.80;99.90
16283;DHT22;8249;48.708;9.030;2023-02-24T06:15:26;7.70;99.90
16283;DHT22;8249;48.708;9.030;2023-02-24T06:17:54;7.80;99.90
16283;DHT22;8249;48.708;9.030;2023-02-24T06:20:22;7.80;99.90
16283;DHT22;8249;48.708;9.030;2023-02-24T06:22:51;7.80;99.90
16283;DHT22;8249;48.708;9.030;2023-02-24T06:25:19;7.80;99.90
16283;DHT22;8249;48.708;9.030;2023-02-24T06:27:50;7.80;99.90
16283;DHT22;8249;48.708;9.030;2023-02-24T06:30:20;7.80;99.90
16283;DHT22;8249;48.708;9.030;2023-02-24T06:32:48;7.90;99.90
16283;DHT22;8249;48.708;9.030;2023-02-24T06:35:18;7.90;99.90
16283;DHT22;8249;48.708;9.030;2023-02-24T06:37:45;7.90;99.90
16283;DHT22;8249;48.708;9.030;2023-02-24T06:40:13;8.00;99.90
16283;DHT22;8249;48.708;9.030;2023-02-24T06:42:45;8.00;99.90
16283;DHT22;8249;48.708;9.030;2023-02-24T06:45:13;8.00;99.90
16283;DHT22;8249;48.708;9.030;2023-02-24T06:47:41;8.00;99.90
16283;DHT22;8249;48.708;9.030;2023-02-24T06:50:09;8.00;99.90
16283;DHT22;8249;48.708;9.030;2023-02-24T06:52:38;7.90;99.90
16283;DHT22;8249;48.708;9.030;2023-02-24T06:55:06;7.90;99.90
16283;DHT22;8249;48.708;9.030;2023-02-24T06:57:51;7.90;99.90
16283;DHT22;8249;48.708;9.030;2023-02-24T07:00:26;7.90;99.90
16283;DHT22;8249;48.708;9.030;2023-02-24T07:03:06;8.00;99.90
16283;DHT22;8249;48.708;9.030;2023-02-24T07:05:45;8.00;99.90
16283;DHT22;8249;48.708;9.030;2023-02-24T07:08:18;8.00;99.90
16283;DHT22;8249;48.708;9.030;2023-02-24T07:10:51;8.00;99.90
16283;DHT22;8249;48.708;9.030;2023-02-24T07:13:18;8.00;99.90
16283;DHT22;8249;48.708;9.030;2023-02-24T07:15:45;8.00;99.90
16283;DHT22;8249;48.708;9.030;2023-02-24T07:18:15;8.00;99.90
16283;DHT22;8249;48.708;9.030;2023-02-24T07:20:42;8.00;99.90
16283;DHT22;8249;48.708;9.030;2023-02-24T07:23:11;8.00;99.90
16283;DHT22;8249;48.708;9.030;2023-02-24T07:25:40;8.10;99.90
16283;DHT22;8249;48.708;9.030;2023-02-24T07:28:08;8.10;99.90
16283;DHT22;8249;48.708;9.030;2023-02-24T07:30:37;8.20;99.90
16283;DHT22;8249;48.708;9.030;2023-02-24T07:33:04;8.10;99.90
16283;DHT22;8249;48.708;9.030;2023-02-24T07:35:32;8.10;99.90
16283;DHT22;8249;48.708;9.030;2023-02-24T07:38:00;8.20;99.90
16283;DHT22;8249;48.708;9.030;2023-02-24T07:40:30;8.20;99.90
16283;DHT22;8249;48.708;9.030;2023-02-24T07:42:59;8.20;99.90
16283;DHT22;8249;48.708;9.030;2023-02-24T07:45:26;8.20;99.90
16283;DHT22;8249;48.708;9.030;2023-02-24T07:47:54;8.30;99.90
16283;DHT22;8249;48.708;9.030;2023-02-24T07:50:22;8.30;99.90
16283;DHT22;8249;48.708;9.030;2023-02-24T07:52:49;8.40;99.90
16283;DHT22;8249;48.708;9.030;2023-02-24T07:55:16;8.30;99.90
16283;DHT22;8249;48.708;9.030;2023-02-24T07:57:43;8.40;99.90
16283;DHT22;8249;48.708;9.030;2023-02-24T08:00:16;8.40;99.90
16283;DHT22;8249;48.708;9.030;2023-02-24T08:02:45;8.40;99.90
16283;DHT22;8249;48.708;9.030;2023-02-24T08:05:13;8.40;99.90
16283;DHT22;8249;48.708;9.030;2023-02-24T08:07:39;8.40;99.90
16283;DHT22;8249;48.708;9.030;2023-02-24T08:10:08;8.40;99.90
16283;DHT22;8249;48.708;9.030;2023-02-24T08:12:39;8.40;99.90
16283;DHT22;8249;48.708;9.030;2023-02-24T08:15:10;8.40;99.90
16283;DHT22;8249;48.708;9.030;2023-02-24T08:17:51;8.40;99.90
16283;DHT22;8249;48.708;9.030;2023-02-24T08:20:19;8.40;99.90
16283;DHT22;8249;48.708;9.030;2023-02-24T08:22:52;8.60;99.90
16283;DHT22;8249;48.708;9.030;2023-02-24T08:25:25;8.70;99.90
16283;DHT22;8249;48.708;9.030;2023-02-24T08:28:01;8.80;99.90
16283;DHT22;8249;48.708;9.030;2023-02-24T08:30:31;8.90;99.90
16283;DHT22;8249;48.708;9.030;2023-02-24T08:33:06;8.90;99.90
16283;DHT22;8249;48.708;9.030;2023-02-24T08:35:35;8.90;99.90
16283;DHT22;8249;48.708;9.030;2023-02-24T08:38:06;9.00;99.90
16283;DHT22;8249;48.708;9.030;2023-02-24T08:40:35;9.00;99.90
16283;DHT22;8249;48.708;9.030;2023-02-24T08:43:18;9.00;99.90
16283;DHT22;8249;48.708;9.030;2023-02-24T08:45:52;9.00;99.90
16283;DHT22;8249;48.708;9.030;2023-02-24T08:48:25;9.00;99.90
16283;DHT22;8249;48.708;9.030;2023-02-24T08:50:58;8.90;99.90
16283;DHT22;8249;48.708;9.030;2023-02-24T08:53:27;8.90;99.90
16283;DHT22;8249;48.708;9.030;2023-02-24T08:55:57;8.90;99.90
16283;DHT22;8249;48.708;9.030;2023-02-24T08:58:25;8.90;99.90
16283;DHT22;8249;48.708;9.030;2023-02-24T09:00:53;8.90;99.90
16283;DHT22;8249;48.708;9.030;2023-02-24T09:03:24;8.90;99.90
16283;DHT22;8249;48.708;9.030;2023-02-24T09:05:59;8.90;99.90
16283;DHT22;8249;48.708;9.030;2023-02-24T09:08:30;8.90;99.90
16283;DHT22;8249;48.708;9.030;2023-02-24T09:11:05;8.80;99.90
16283;DHT22;8249;48.708;9.030;2023-02-24T09:13:34;8.80;99.90
16283;DHT22;8249;48.708;9.030;2023-02-24T09:16:02;8.90;99.90
16283;DHT22;8249;48.708;9.030;2023-02-24T09:18:31;8.90;99.90
16283;DHT22;8249;48.708;9.030;2023-02-24T09:21:10;8.90;99.90
16283;DHT22;8249;48.708;9.030;2023-02-24T09:23:55;9.00;99.90
16283;DHT22;8249;48.708;9.030;2023-02-24T09:26:25;9.00;99.90
16283;DHT22;8249;48.708;9.030;2023-02-24T09:28:57;9.20;99.90
16283;DHT22;8249;48.708;9.030;2023-02-24T09:31:24;9.20;99.90
16283;DHT22;8249;48.708;9.030;2023-02-24T09:34:07;9.30;99.90
16283;DHT22;8249;48.708;9.030;2023-02-24T09:36:42;9.40;99.90
16283;DHT22;8249;48.708;9.030;2023-02-24T09:39:26;9.30;99.90
16283;DHT22;8249;48.708;9.030;2023-02-24T09:41:52;9.20;99.90
16283;DHT22;8249;48.708;9.030;2023-02-24T09:44:31;9.20;99.90
16283;DHT22;8249;48.708;9.030;2023-02-24T09:47:03;9.20;99.90
16283;DHT22;8249;48.708;9.030;2023-02-24T09:49:45;9.30;99.90
16283;DHT22;8249;48.708;9.030;2023-02-24T09:52:14;9.30;99.90
16283;DHT22;8249;48.708;9.030;2023-02-24T09:54:44;9.50;99.90
16283;DHT22;8249;48.708;9.030;2023-02-24T09:57:45;9.70;99.90
16283;DHT22;8249;48.708;9.030;2023-02-24T10:00:48;10.10;99.90
16283;DHT22;8249;48.708;9.030;2023-02-24T10:03:19;10.20;99.90
16283;DHT22;8249;48.708;9.030;2023-02-24T10:06:14;10.20;99.90
16283;DHT22;8249;48.708;9.030;2023-02-24T10:08:50;10.20;99.90
16283;DHT22;8249;48.708;9.030;2023-02-24T10:11:18;10.30;99.90
16283;DHT22;8249;48.708;9.030;2023-02-24T10:14:01;10.30;99.90
16283;DHT22;8249;48.708;9.030;2023-02-24T10:16:32;10.50;99.90
16283;DHT22;8249;48.708;9.030;2023-02-24T10:19:30;10.60;99.90
16283;DHT22;8249;48.708;9.030;2023-02-24T10:22:04;10.80;99.90
16283;DHT22;8249;48.708;9.030;2023-02-24T10:24:37;11.00;99.90
16283;DHT22;8249;48.708;9.030;2023-02-24T10:27:14;11.00;99.90
16283;DHT22;8249;48.708;9.030;2023-02-24T10:29:59;11.00;99.90
16283;DHT22;8249;48.708;9.030;2023-02-24T10:32:42;11.10;99.90
16283;DHT22;8249;48.708;9.030;2023-02-24T10:35:13;11.20;99.90
16283;DHT22;8249;48.708;9.030;2023-02-24T10:37:43;11.30;99.90
16283;DHT22;8249;48.708;9.030;2023-02-24T10:40:12;11.30;99.90
16283;DHT22;8249;48.708;9.030;2023-02-24T10:42:49;11.10;99.90
16283;DHT22;8249;48.708;9.030;2023-02-24T10:45:22;11.00;99.90
16283;DHT22;8249;48.708;9.030;2023-02-24T10:47:52;10.90;99.90
16283;DHT22;8249;48.708;9.030;2023-02-24T10:50:24;10.80;99.90
16283;DHT22;8249;48.708;9.030;2023-02-24T10:53:01;10.70;99.90
16283;DHT22;8249;48.708;9.030;2023-02-24T10:55:51;10.70;99.90
16283;DHT22;8249;48.708;9.030;2023-02-24T10:58:40;10.50;99.90
16283;DHT22;8249;48.708;9.030;2023-02-24T11:01:16;10.40;99.90
16283;DHT22;8249;48.708;9.030;2023-02-24T11:03:50;10.40;99.90
16283;DHT22;8249;48.708;9.030;2023-02-24T11:06:37;10.30;99.90
16283;DHT22;8249;48.708;9.030;2023-02-24T11:09:24;10.20;99.90
16283;DHT22;8249;48.708;9.030;2023-02-24T11:12:04;10.10;99.90
16283;DHT22;8249;48.708;9.030;2023-02-24T11:14:51;10.10;99.90
16283;DHT22;8249;48.708;9.030;2023-02-24T11:17:44;10.00;99.90
16283;DHT22;8249;48.708;9.030;2023-02-24T11:20:21;9.90;99.90
16283;DHT22;8249;48.708;9.030;2023-02-24T11:22:50;9.80;99.90
16283;DHT22;8249;48.708;9.030;2023-02-24T11:25:24;9.80;99.90
16283;DHT22;8249;48.708;9.030;2023-02-24T11:27:54;9.70;99.90
16283;DHT22;8249;48.708;9.030;2023-02-24T11:30:25;9.70;99.90
16283;DHT22;8249;48.708;9.030;2023-02-24T11:33:08;9.70;99.90
16283;DHT22;8249;48.708;9.030;2023-02-24T11:35:45;9.70;99.90
16283;DHT22;8249;48.708;9.030;2023-02-24T11:38:20;9.80;99.90
16283;DHT22;8249;48.708;9.030;2023-02-24T11:41:00;9.80;99.90
16283;DHT22;8249;48.708;9.030;2023-02-24T11:43:32;9.90;99.90
16283;DHT22;8249;48.708;9.030;2023-02-24T11:46:04;9.90;99.90
16283;DHT22;8249;48.708;9.030;2023-02-24T11:48:37;9.90;99.90
16283;DHT22;8249;48.708;9.030;2023-02-24T11:51:08;9.90;99.90
16283;DHT22;8249;48.708;9.030;2023-02-24T11:53:40;10.00;99.90
16283;DHT22;8249;48.708;9.030;2023-02-24T11:56:16;10.10;99.90
16283;DHT22;8249;48.708;9.030;2023-02-24T11:58:49;10.20;99.90
16283;DHT22;8249;48.708;9.030;2023-02-24T12:01:23;10.50;99.90
16283;DHT22;8249;48.708;9.030;2023-02-24T12:03:56;10.80;99.90
16283;DHT22;8249;48.708;9.030;2023-02-24T12:06:28;11.10;99.90
16283;DHT22;8249;48.708;9.030;2023-02-24T12:09:00;11.60;99.90
16283;DHT22;8249;48.708;9.030;2023-02-24T12:11:38;12.40;99.90
16283;DHT22;8249;48.708;9.030;2023-02-24T12:14:20;13.90;99.90
16283;DHT22;8249;48.708;9.030;2023-02-24T12:16:53;14.60;99.90
16283;DHT22;8249;48.708;9.030;2023-02-24T12:19:26;15.10;99.90
16283;DHT22;8249;48.708;9.030;2023-02-24T12:22:00;15.10;99.90
16283;DHT22;8249;48.708;9.030;2023-02-24T12:24:30;14.80;99.90
16283;DHT22;8249;48.708;9.030;2023-02-24T12:27:05;14.40;99.90
16283;DHT22;8249;48.708;9.030;2023-02-24T12:29:52;13.90;99.90
16283;DHT22;8249;48.708;9.030;2023-02-24T12:32:29;13.50;99.90
16283;DHT22;8249;48.708;9.030;2023-02-24T12:35:04;13.00;99.90
16283;DHT22;8249;48.708;9.030;2023-02-24T12:37:55;12.70;99.90
16283;DHT22;8249;48.708;9.030;2023-02-24T12:40:30;12.50;99.90
16283;DHT22;8249;48.708;9.030;2023-02-24T12:43:11;12.40;99.90
16283;DHT22;8249;48.708;9.030;2023-02-24T12:45:47;12.30;99.90
16283;DHT22;8249;48.708;9.030;2023-02-24T12:48:38;12.20;99.90
16283;DHT22;8249;48.708;9.030;2023-02-24T12:51:09;12.20;99.90
16283;DHT22;8249;48.708;9.030;2023-02-24T12:53:44;12.30;99.90
16283;DHT22;8249;48.708;9.030;2023-02-24T12:56:17;12.10;99.90
16283;DHT22;8249;48.708;9.030;2023-02-24T12:58:50;11.90;99.90
16283;DHT22;8249;48.708;9.030;2023-02-24T13:01:23;11.60;99.90
16283;DHT22;8249;48.708;9.030;2023-02-24T13:04:06;11.40;99.90
16283;DHT22;8249;48.708;9.030;2023-02-24T13:06:46;11.30;99.90
16283;DHT22;8249;48.708;9.030;2023-02-24T13:09:21;11.30;99.90
16283;DHT22;8249;48.708;9.030;2023-02-24T13:11:54;11.20;99.90
16283;DHT22;8249;48.708;9.030;2023-02-24T13:14:27;11.30;99.90
16283;DHT22;8249;48.708;9.030;2023-02-24T13:17:15;11.30;99.90
16283;DHT22;8249;48.708;9.030;2023-02-24T13:19:44;11.20;99.90
16283;DHT22;8249;48.708;9.030;2023-02-24T13:22:24;11.20;99.90
16283;DHT22;8249;48.708;9.030;2023-02-24T13:24:59;11.10;99.90
16283;DHT22;8249;48.708;9.030;2023-02-24T13:27:29;11.20;99.90
16283;DHT22;8249;48.708;9.030;2023-02-24T13:30:03;11.10;99.90
16283;DHT22;8249;48.708;9.030;2023-02-24T13:32:34;11.20;99.90
16283;DHT22;8249;48.708;9.030;2023-02-24T13:35:05;11.10;99.90
16283;DHT22;8249;48.708;9.030;2023-02-24T13:37:35;11.00;99.90
16283;DHT22;8249;48.708;9.030;2023-02-24T13:40:19;11.00;99.90
16283;DHT22;8249;48.708;9.030;2023-02-24T13:42:56;11.00;99.90
16283;DHT22;8249;48.708;9.030;2023-02-24T13:45:28;11.00;99.90
16283;DHT22;8249;48.708;9.030;2023-02-24T13:51:22;11.00;99.90
16283;DHT22;8249;48.708;9.030;2023-02-24T13:54:08;11.00;99.90
16283;DHT22;8249;48.708;9.030;2023-02-24T13:56:43;11.00;99.90
16283;DHT22;8249;48.708;9.030;2023-02-24T13:59:35;11.00;99.90
16283;DHT22;8249;48.708;9.030;2023-02-24T14:02:12;11.00;99.90
16283;DHT22;8249;48.708;9.030;2023-02-24T14:04:46;10.90;99.90
16283;DHT22;8249;48.708;9.030;2023-02-24T14:07:18;10.80;99.90
16283;DHT22;8249;48.708;9.030;2023-02-24T14:09:49;10.80;99.90
16283;DHT22;8249;48.708;9.030;2023-02-24T14:12:19;10.70;99.90
16283;DHT22;8249;48.708;9.030;2023-02-24T14:14:47;10.70;99.90
16283;DHT22;8249;48.708;9.030;2023-02-24T14:17:25;10.60;99.90
16283;DHT22;8249;48.708;9.030;2023-02-24T14:19:54;10.60;99.90
16283;DHT22;8249;48.708;9.030;2023-02-24T14:22:21;10.50;99.90
16283;DHT22;8249;48.708;9.030;2023-02-24T14:24:48;10.60;99.90
16283;DHT22;8249;48.708;9.030;2023-02-24T14:27:26;10.60;99.90
16283;DHT22;8249;48.708;9.030;2023-02-24T14:29:53;10.50;99.90
16283;DHT22;8249;48.708;9.030;2023-02-24T14:32:23;10.50;99.90
16283;DHT22;8249;48.708;9.030;2023-02-24T14:34:52;10.50;99.90
16283;DHT22;8249;48.708;9.030;2023-02-24T14:37:22;10.50;99.90
16283;DHT22;8249;48.708;9.030;2023-02-24T14:39:50;10.40;99.90
16283;DHT22;8249;48.708;9.030;2023-02-24T14:42:19;10.40;99.90
16283;DHT22;8249;48.708;9.030;2023-02-24T14:44:47;10.40;99.90
16283;DHT22;8249;48.708;9.030;2023-02-24T14:47:16;10.30;99.90
16283;DHT22;8249;48.708;9.030;2023-02-24T14:49:54;10.20;99.90
16283;DHT22;8249;48.708;9.030;2023-02-24T14:52:32;10.20;99.90
16283;DHT22;8249;48.708;9.030;2023-02-24T14:55:03;10.20;99.90
16283;DHT22;8249;48.708;9.030;2023-02-24T14:57:33;10.20;99.90
16283;DHT22;8249;48.708;9.030;2023-02-24T15:00:03;10.20;99.90
16283;DHT22;8249;48.708;9.030;2023-02-24T15:02:39;10.20;99.90
16283;DHT22;8249;48.708;9.030;2023-02-24T15:05:09;10.20;99.90
16283;DHT22;8249;48.708;9.030;2023-02-24T15:07:37;10.20;99.90
16283;DHT22;8249;48.708;9.030;2023-02-24T15:10:13;10.20;99.90
16283;DHT22;8249;48.708;9.030;2023-02-24T15:12:45;10.20;99.90
16283;DHT22;8249;48.708;9.030;2023-02-24T15:15:18;10.30;99.90
16283;DHT22;8249;48.708;9.030;2023-02-24T15:17:48;10.20;99.90
16283;DHT22;8249;48.708;9.030;2023-02-24T15:20:31;10.20;99.90
16283;DHT22;8249;48.708;9.030;2023-02-24T15:22:58;10.20;99.90
16283;DHT22;8249;48.708;9.030;2023-02-24T15:25:27;10.10;99.90
16283;DHT22;8249;48.708;9.030;2023-02-24T15:27:56;10.10;99.90
16283;DHT22;8249;48.708;9.030;2023-02-24T15:30:31;10.10;99.90
16283;DHT22;8249;48.708;9.030;2023-02-24T15:33:01;10.00;99.90
16283;DHT22;8249;48.708;9.030;2023-02-24T15:35:31;10.00;99.90
16283;DHT22;8249;48.708;9.030;2023-02-24T15:38:00;10.00;99.90
16283;DHT22;8249;48.708;9.030;2023-02-24T15:40:28;10.00;99.90
16283;DHT22;8249;48.708;9.030;2023-02-24T15:42:57;10.00;99.90
16283;DHT22;8249;48.708;9.030;2023-02-24T15:45:29;10.00;99.90
16283;DHT22;8249;48.708;9.030;2023-02-24T15:47:58;9.90;99.90
16283;DHT22;8249;48.708;9.030;2023-02-24T15:50:26;9.90;99.90
16283;DHT22;8249;48.708;9.030;2023-02-24T15:52:58;9.90;99.90
16283;DHT22;8249;48.708;9.030;2023-02-24T15:55:27;9.90;99.90
16283;DHT22;8249;48.708;9.030;2023-02-24T15:57:59;9.80;99.90
16283;DHT22;8249;48.708;9.030;2023-02-24T16:00:28;9.80;99.90
16283;DHT22;8249;48.708;9.030;2023-02-24T16:02:55;9.70;99.90
16283;DHT22;8249;48.708;9.030;2023-02-24T16:05:23;9.70;99.90
16283;DHT22;8249;48.708;9.030;2023-02-24T16:07:51;9.60;99.90
16283;DHT22;8249;48.708;9.030;2023-02-24T16:10:22;9.50;99.90
16283;DHT22;8249;48.708;9.030;2023-02-24T16:12:52;9.40;99.90
16283;DHT22;8249;48.708;9.030;2023-02-24T16:15:23;9.40;99.90
16283;DHT22;8249;48.708;9.030;2023-02-24T16:17:52;9.40;99.90
16283;DHT22;8249;48.708;9.030;2023-02-24T16:20:22;9.40;99.90
16283;DHT22;8249;48.708;9.030;2023-02-24T16:22:57;9.30;99.90
16283;DHT22;8249;48.708;9.030;2023-02-24T16:25:27;9.30;99.90
16283;DHT22;8249;48.708;9.030;2023-02-24T16:27:54;9.30;99.90
16283;DHT22;8249;48.708;9.030;2023-02-24T16:30:24;9.30;99.90
16283;DHT22;8249;48.708;9.030;2023-02-24T16:32:55;9.20;99.90
16283;DHT22;8249;48.708;9.030;2023-02-24T16:35:22;9.20;99.90
16283;DHT22;8249;48.708;9.030;2023-02-24T16:37:50;9.10;99.90